sensor_id;sensor_type;location;lat;lon;timestamp;temperature;humidity
4505;DHT22;2265;48.794;9.520;2023-03-14T00:01:13;11.10;98.00
4505;DHT22;2265;48.794;9.520;2023-03-14T00:03:41;11.00;98.00
4505;DHT22;2265;48.794;9.520;2023-03-14T00:06:09;11.10;98.00
4505;DHT22;2265;48.794;9.520;2023-03-14T00:08:38;11.00;98.00
4505;DHT22;2265;48.794;9.520;2023-03-14T00:11:07;11.00;98.00
4505;DHT22;2265;48.794;9.520;2023-03-14T00:13:35;11.00;98.00
4505;DHT22;2265;48.794;9.520;2023-03-14T00:16:03;11.00;98.00
4505;DHT22;2265;48.794;9.520;2023-03-14T00:18:32;11.10;98.00
4505;DHT22;2265;48.794;9.520;2023-03-14T00:21:00;11.10;98.00
4505;DHT22;2265;48.794;9.520;2023-03-14T00:23:28;11.10;98.00
4505;DHT22;2265;48.794;9.520;2023-03-14T00:26:01;11.10;98.00
4505;DHT22;2265;48.794;9.520;2023-03-14T00:28:28;11.10;98.00
4505;DHT22;2265;48.794;9.520;2023-03-14T00:30:56;11.10;98.00
4505;DHT22;2265;48.794;9.520;2023-03-14T00:33:23;11.10;98.00
4505;DHT22;2265;48.794;9.520;2023-03-14T00:35:56;11.20;98.00
4505;DHT22;2265;48.794;9.520;2023-03-14T00:38:23;11.10;98.00
4505;DHT22;2265;48.794;9.520;2023-03-14T00:40:51;11.20;98.00
4505;DHT22;2265;48.794;9.520;2023-03-14T00:43:19;11.10;98.00
4505;DHT22;2265;48.794;9.520;2023-03-14T00:45:47;11.10;98.00
4505;DHT22;2265;48.794;9.520;2023-03-14T00:48:14;11.10;98.00
4505;DHT22;2265;48.794;9.520;2023-03-14T00:50:41;11.30;98.00
4505;DHT22;2265;48.794;9.520;2023-03-14T00:53:10;11.30;98.00
4505;DHT22;2265;48.794;9.520;2023-03-14T00:55:37;11.20;98.00
4505;DHT22;2265;48.794;9.520;2023-03-14T00:58:05;11.30;98.00
4505;DHT22;2265;48.794;9.520;2023-03-14T01:00:32;11.40;98.00
4505;DHT22;2265;48.794;9.520;2023-03-14T01:03:02;11.40;98.00
4505;DHT22;2265;48.794;9.520;2023-03-14T01:05:29;11.40;98.00
4505;DHT22;2265;48.794;9.520;2023-03-14T01:07:57;11.40;98.00
4505;DHT22;2265;48.794;9.520;2023-03-14T01:10:26;11.40;98.00
4505;DHT22;2265;48.794;9.520;2023-03-14T01:12:53;11.40;98.00
4505;DHT22;2265;48.794;9.520;2023-03-14T01:15:20;11.40;98.00
4505;DHT22;2265;48.794;9.520;2023-03-14T01:17:47;11.40;98.00
4505;DHT22;2265;48.794;9.520;2023-03-14T01:20:15;11.30;98.00
4505;DHT22;2265;48.794;9.520;2023-03-14T01:22:44;11.30;98.00
4505;DHT22;2265;48.794;9.520;2023-03-14T01:25:13;11.20;98.00
4505;DHT22;2265;48.794;9.520;2023-03-14T01:27:42;11.30;98.00
4505;DHT22;2265;48.794;9.520;2023-03-14T01:30:11;11.20;98.00
4505;DHT22;2265;48.794;9.520;2023-03-14T01:32:39;11.20;98.00
4505;DHT22;2265;48.794;9.520;2023-03-14T01:35:06;11.20;98.00
4505;DHT22;2265;48.794;9.520;2023-03-14T01:37:34;11.10;98.00
4505;DHT22;2265;48.794;9.520;2023-03-14T01:40:01;11.10;98.00
4505;DHT22;2265;48.794;9.520;2023-03-14T01:42:29;11.10;98.00
4505;DHT22;2265;48.794;9.520;2023-03-14T01:47:48;11.00;98.00
4505;DHT22;2265;48.794;9.520;2023-03-14T01:50:15;11.10;98.00
4505;DHT22;2265;48.794;9.520;2023-03-14T01:52:45;11.00;98.00
4505;DHT22;2265;48.794;9.520;2023-03-14T01:55:16;11.00;98.00
4505;DHT22;2265;48.794;9.520;2023-03-14T01:57:46;11.00;98.00
4505;DHT22;2265;48.794;9.520;2023-03-14T02:00:19;11.00;98.00
4505;DHT22;2265;48.794;9.520;2023-03-14T02:02:49;11.00;98.00
4505;DHT22;2265;48.794;9.520;2023-03-14T02:05:19;11.00;98.00
4505;DHT22;2265;48.794;9.520;2023-03-14T02:07:49;11.10;98.00
4505;DHT22;2265;48.794;9.520;2023-03-14T02:10:19;11.20;98.00
4505;DHT22;2265;48.794;9.520;2023-03-14T02:12:48;11.10;98.00
4505;DHT22;2265;48.794;9.520;2023-03-14T02:15:17;11.10;98.00
4505;DHT22;2265;48.794;9.520;2023-03-14T02:17:45;11.10;98.00
4505;DHT22;2265;48.794;9.520;2023-03-14T02:20:25;11.20;98.00
4505;DHT22;2265;48.794;9.520;2023-03-14T02:22:54;11.20;98.00
4505;DHT22;2265;48.794;9.520;2023-03-14T02:25:31;11.10;98.00
4505;DHT22;2265;48.794;9.520;2023-03-14T02:28:02;11.10;98.00
4505;DHT22;2265;48.794;9.520;2023-03-14T02:30:31;11.00;98.00
4505;DHT22;2265;48.794;9.520;2023-03-14T02:33:04;11.00;98.00
4505;DHT22;2265;48.794;9.520;2023-03-14T02:35:37;11.00;98.00
4505;DHT22;2265;48.794;9.520;2023-03-14T02:38:10;11.10;98.00
4505;DHT22;2265;48.794;9.520;2023-03-14T02:40:41;11.00;98.00
4505;DHT22;2265;48.794;9.520;2023-03-14T02:43:10;11.00;98.00
4505;DHT22;2265;48.794;9.520;2023-03-14T02:45:44;11.00;98.00
4505;DHT22;2265;48.794;9.520;2023-03-14T02:48:15;11.00;98.00
4505;DHT22;2265;48.794;9.520;2023-03-14T02:50:44;11.00;98.00
4505;DHT22;2265;48.794;9.520;2023-03-14T02:53:15;11.00;98.00
4505;DHT22;2265;48.794;9.520;2023-03-14T02:55:45;10.90;98.00
4505;DHT22;2265;48.794;9.520;2023-03-14T02:58:14;10.90;98.00
4505;DHT22;2265;48.794;9.520;2023-03-14T03:00:42;10.90;98.00
4505;DHT22;2265;48.794;9.520;2023-03-14T03:03:09;10.90;98.00
4505;DHT22;2265;48.794;9.520;2023-03-14T03:05:36;11.00;98.00
4505;DHT22;2265;48.794;9.520;2023-03-14T03:08:04;11.00;98.00
4505;DHT22;2265;48.794;9.520;2023-03-14T03:10:31;10.90;98.00
4505;DHT22;2265;48.794;9.520;2023-03-14T03:12:58;10.90;98.00
4505;DHT22;2265;48.794;9.520;2023-03-14T03:15:34;10.90;98.00
4505;DHT22;2265;48.794;9.520;2023-03-14T03:18:02;10.90;98.00
4505;DHT22;2265;48.794;9.520;2023-03-14T03:20:29;10.90;98.00
4505;DHT22;2265;48.794;9.520;2023-03-14T03:22:56;10.90;98.00
4505;DHT22;2265;48.794;9.520;2023-03-14T03:25:25;10.90;98.00
4505;DHT22;2265;48.794;9.520;2023-03-14T03:27:52;10.90;98.00
4505;DHT22;2265;48.794;9.520;2023-03-14T03:30:27;11.00;98.00
4505;DHT22;2265;48.794;9.520;2023-03-14T03:32:55;11.00;98.00
4505;DHT22;2265;48.794;9.520;2023-03-14T03:35:22;11.00;98.00
4505;DHT22;2265;48.794;9.520;2023-03-14T03:37:49;10.90;98.00
4505;DHT22;2265;48.794;9.520;2023-03-14T03:40:16;11.00;98.00
4505;DHT22;2265;48.794;9.520;2023-03-14T03:42:43;11.00;98.00
4505;DHT22;2265;48.794;9.520;2023-03-14T03:45:10;10.90;98.00
4505;DHT22;2265;48.794;9.520;2023-03-14T03:47:39;10.90;98.00
4505;DHT22;2265;48.794;9.520;2023-03-14T03:50:07;10.80;98.00
4505;DHT22;2265;48.794;9.520;2023-03-14T03:52:34;10.80;98.00
4505;DHT22;2265;48.794;9.520;2023-03-14T03:55:02;10.80;98.00
4505;DHT22;2265;48.794;9.520;2023-03-14T03:57:29;10.80;98.00
4505;DHT22;2265;48.794;9.520;2023-03-14T03:59:56;10.90;98.00
4505;DHT22;2265;48.794;9.520;2023-03-14T04:02:25;10.80;98.00
4505;DHT22;2265;48.794;9.520;2023-03-14T04:04:53;10.80;98.00
4505;DHT22;2265;48.794;9.520;2023-03-14T04:07:20;10.90;98.00
4505;DHT22;2265;48.794;9.520;2023-03-14T04:09:47;10.80;98.00
4505;DHT22;2265;48.794;9.520;2023-03-14T04:12:15;10.70;98.00
4505;DHT22;2265;48.794;9.520;2023-03-14T04:14:42;10.70;98.00
4505;DHT22;2265;48.794;9.520;2023-03-14T04:17:09;10.70;98.00
4505;DHT22;2265;48.794;9.520;2023-03-14T04:19:36;10.70;98.00
4505;DHT22;2265;48.794;9.520;2023-03-14T04:22:04;10.70;98.00
4505;DHT22;2265;48.794;9.520;2023-03-14T04:24:31;10.70;98.00
4505;DHT22;2265;48.794;9.520;2023-03-14T04:26:59;10.70;98.00
4505;DHT22;2265;48.794;9.520;2023-03-14T04:29:26;10.70;98.00
4505;DHT22;2265;48.794;9.520;2023-03-14T04:31:53;10.70;98.00
4505;DHT22;2265;48.794;9.520;2023-03-14T04:34:20;10.70;98.00
4505;DHT22;2265;48.794;9.520;2023-03-14T04:36:47;10.60;98.00
4505;DHT22;2265;48.794;9.520;2023-03-14T04:39:15;10.70;98.00
4505;DHT22;2265;48.794;9.520;2023-03-14T04:41:44;10.70;98.00
4505;DHT22;2265;48.794;9.520;2023-03-14T04:44:11;10.70;98.00
4505;DHT22;2265;48.794;9.520;2023-03-14T04:46:38;10.70;98.00
4505;DHT22;2265;48.794;9.520;2023-03-14T04:49:07;10.70;98.00
4505;DHT22;2265;48.794;9.520;2023-03-14T04:51:34;10.60;98.00
4505;DHT22;2265;48.794;9.520;2023-03-14T04:54:01;10.70;98.00
4505;DHT22;2265;48.794;9.520;2023-03-14T04:56:31;10.70;98.00
4505;DHT22;2265;48.794;9.520;2023-03-14T04:58:58;10.70;98.00
4505;DHT22;2265;48.794;9.520;2023-03-14T05:01:25;10.70;98.00
4505;DHT22;2265;48.794;9.520;2023-03-14T05:03:53;10.70;98.00
4505;DHT22;2265;48.794;9.520;2023-03-14T05:06:20;10.70;98.00
4505;DHT22;2265;48.794;9.520;2023-03-14T05:08:47;10.70;98.00
4505;DHT22;2265;48.794;9.520;2023-03-14T05:11:14;10.70;98.00
4505;DHT22;2265;48.794;9.520;2023-03-14T05:13:42;10.80;98.00
4505;DHT22;2265;48.794;9.520;2023-03-14T05:16:10;10.80;98.00
4505;DHT22;2265;48.794;9.520;2023-03-14T05:18:38;10.90;98.00
4505;DHT22;2265;48.794;9.520;2023-03-14T05:21:05;10.80;98.00
4505;DHT22;2265;48.794;9.520;2023-03-14T05:23:32;10.80;98.00
4505;DHT22;2265;48.794;9.520;2023-03-14T05:25:59;10.80;98.00
4505;DHT22;2265;48.794;9.520;2023-03-14T05:28:28;10.80;98.00
4505;DHT22;2265;48.794;9.520;2023-03-14T05:31:05;10.80;98.00
4505;DHT22;2265;48.794;9.520;2023-03-14T05:33:33;10.80;98.00
4505;DHT22;2265;48.794;9.520;2023-03-14T05:36:00;10.80;98.00
4505;DHT22;2265;48.794;9.520;2023-03-14T05:38:27;10.90;98.00
4505;DHT22;2265;48.794;9.520;2023-03-14T05:40:54;10.70;98.00
4505;DHT22;2265;48.794;9.520;2023-03-14T05:43:22;10.60;98.00
4505;DHT22;2265;48.794;9.520;2023-03-14T05:45:49;10.60;98.00
4505;DHT22;2265;48.794;9.520;2023-03-14T05:48:17;10.60;98.00
4505;DHT22;2265;48.794;9.520;2023-03-14T05:50:44;10.60;98.00
4505;DHT22;2265;48.794;9.520;2023-03-14T05:53:12;10.70;98.00
4505;DHT22;2265;48.794;9.520;2023-03-14T05:55:39;10.60;98.00
4505;DHT22;2265;48.794;9.520;2023-03-14T05:58:06;10.70;98.00
4505;DHT22;2265;48.794;9.520;2023-03-14T06:00:33;10.60;98.00
4505;DHT22;2265;48.794;9.520;2023-03-14T06:03:00;10.60;98.00
4505;DHT22;2265;48.794;9.520;2023-03-14T06:05:29;10.60;98.00
4505;DHT22;2265;48.794;9.520;2023-03-14T06:07:56;10.60;98.00
4505;DHT22;2265;48.794;9.520;2023-03-14T06:10:23;10.60;98.00
4505;DHT22;2265;48.794;9.520;2023-03-14T06:12:50;10.70;98.00
4505;DHT22;2265;48.794;9.520;2023-03-14T06:15:17;10.70;98.00
4505;DHT22;2265;48.794;9.520;2023-03-14T06:17:44;10.70;98.00
4505;DHT22;2265;48.794;9.520;2023-03-14T06:20:13;10.80;98.00
4505;DHT22;2265;48.794;9.520;2023-03-14T06:22:41;10.70;98.00
4505;DHT22;2265;48.794;9.520;2023-03-14T06:25:09;10.80;98.00
4505;DHT22;2265;48.794;9.520;2023-03-14T06:27:37;10.80;98.00
4505;DHT22;2265;48.794;9.520;2023-03-14T06:30:05;10.70;98.00
4505;DHT22;2265;48.794;9.520;2023-03-14T06:32:34;10.60;98.00
4505;DHT22;2265;48.794;9.520;2023-03-14T06:35:02;10.70;98.00
4505;DHT22;2265;48.794;9.520;2023-03-14T06:37:29;10.60;98.00
4505;DHT22;2265;48.794;9.520;2023-03-14T06:39:58;10.60;98.00
4505;DHT22;2265;48.794;9.520;2023-03-14T06:42:25;10.50;98.00
4505;DHT22;2265;48.794;9.520;2023-03-14T06:44:52;10.60;98.00
4505;DHT22;2265;48.794;9.520;2023-03-14T06:47:19;10.60;98.00
4505;DHT22;2265;48.794;9.520;2023-03-14T06:49:46;10.70;98.00
4505;DHT22;2265;48.794;9.520;2023-03-14T06:52:13;10.70;98.00
4505;DHT22;2265;48.794;9.520;2023-03-14T06:54:40;10.60;98.00
4505;DHT22;2265;48.794;9.520;2023-03-14T06:57:09;10.60;98.00
4505;DHT22;2265;48.794;9.520;2023-03-14T06:59:36;10.60;98.00
4505;DHT22;2265;48.794;9.520;2023-03-14T07:02:03;10.70;98.00
4505;DHT22;2265;48.794;9.520;2023-03-14T07:04:31;10.70;98.00
4505;DHT22;2265;48.794;9.520;2023-03-14T07:06:58;10.70;98.00
4505;DHT22;2265;48.794;9.520;2023-03-14T07:09:25;10.70;98.00
4505;DHT22;2265;48.794;9.520;2023-03-14T07:11:54;10.70;98.00
4505;DHT22;2265;48.794;9.520;2023-03-14T07:14:23;10.70;98.00
4505;DHT22;2265;48.794;9.520;2023-03-14T07:16:50;10.70;98.00
4505;DHT22;2265;48.794;9.520;2023-03-14T07:19:17;10.80;98.00
4505;DHT22;2265;48.794;9.520;2023-03-14T07:21:44;10.90;98.00
4505;DHT22;2265;48.794;9.520;2023-03-14T07:24:11;10.90;98.00
4505;DHT22;2265;48.794;9.520;2023-03-14T07:26:39;11.00;98.00
4505;DHT22;2265;48.794;9.520;2023-03-14T07:29:06;10.90;98.00
4505;DHT22;2265;48.794;9.520;2023-03-14T07:31:34;10.90;98.00
4505;DHT22;2265;48.794;9.520;2023-03-14T07:34:01;11.00;98.00
4505;DHT22;2265;48.794;9.520;2023-03-14T07:36:28;11.00;98.00
4505;DHT22;2265;48.794;9.520;2023-03-14T07:38:56;11.10;98.00
4505;DHT22;2265;48.794;9.520;2023-03-14T07:41:23;11.10;98.00
4505;DHT22;2265;48.794;9.520;2023-03-14T07:43:53;11.20;98.00
4505;DHT22;2265;48.794;9.520;2023-03-14T07:46:20;11.20;98.00
4505;DHT22;2265;48.794;9.520;2023-03-14T07:48:48;11.30;98.00
4505;DHT22;2265;48.794;9.520;2023-03-14T07:51:15;11.30;98.00
4505;DHT22;2265;48.794;9.520;2023-03-14T07:53:42;11.40;98.00
4505;DHT22;2265;48.794;9.520;2023-03-14T07:56:09;11.40;98.00
4505;DHT22;2265;48.794;9.520;2023-03-14T07:58:39;11.40;98.00
4505;DHT22;2265;48.794;9.520;2023-03-14T08:01:06;11.50;98.00
4505;DHT22;2265;48.794;9.520;2023-03-14T08:03:33;11.50;98.00
4505;DHT22;2265;48.794;9.520;2023-03-14T08:06:02;11.50;98.00
4505;DHT22;2265;48.794;9.520;2023-03-14T08:08:29;11.50;98.00
4505;DHT22;2265;48.794;9.520;2023-03-14T08:11:02;11.50;98.00
4505;DHT22;2265;48.794;9.520;2023-03-14T08:13:29;11.70;98.00
4505;DHT22;2265;48.794;9.520;2023-03-14T08:15:56;11.80;98.00
4505;DHT22;2265;48.794;9.520;2023-03-14T08:18:23;12.00;98.00
4505;DHT22;2265;48.794;9.520;2023-03-14T08:20:52;12.10;98.00
4505;DHT22;2265;48.794;9.520;2023-03-14T08:23:21;12.20;98.00
4505;DHT22;2265;48.794;9.520;2023-03-14T08:25:48;12.30;98.00
4505;DHT22;2265;48.794;9.520;2023-03-14T08:28:16;12.30;98.00
4505;DHT22;2265;48.794;9.520;2023-03-14T08:30:43;12.50;98.00
4505;DHT22;2265;48.794;9.520;2023-03-14T08:33:11;12.50;98.00
4505;DHT22;2265;48.794;9.520;2023-03-14T08:35:38;12.50;98.00
4505;DHT22;2265;48.794;9.520;2023-03-14T08:38:05;12.60;98.00
4505;DHT22;2265;48.794;9.520;2023-03-14T08:40:34;12.80;98.00
4505;DHT22;2265;48.794;9.520;2023-03-14T08:43:17;12.90;98.00
4505;DHT22;2265;48.794;9.520;2023-03-14T08:45:47;12.90;98.00
4505;DHT22;2265;48.794;9.520;2023-03-14T08:48:14;12.90;98.00
4505;DHT22;2265;48.794;9.520;2023-03-14T08:50:42;13.00;98.00
4505;DHT22;2265;48.794;9.520;2023-03-14T08:53:09;13.20;98.00
4505;DHT22;2265;48.794;9.520;2023-03-14T08:55:38;13.40;98.00
4505;DHT22;2265;48.794;9.520;2023-03-14T08:58:05;13.60;98.00
4505;DHT22;2265;48.794;9.520;2023-03-14T09:00:32;13.60;98.00
4505;DHT22;2265;48.794;9.520;2023-03-14T09:03:00;13.50;98.00
4505;DHT22;2265;48.794;9.520;2023-03-14T09:05:27;13.50;98.00
4505;DHT22;2265;48.794;9.520;2023-03-14T09:07:54;13.40;98.00
4505;DHT22;2265;48.794;9.520;2023-03-14T09:10:30;13.30;98.00
4505;DHT22;2265;48.794;9.520;2023-03-14T09:12:59;13.20;98.00
4505;DHT22;2265;48.794;9.520;2023-03-14T09:15:26;13.30;98.00
4505;DHT22;2265;48.794;9.520;2023-03-14T09:17:55;13.40;98.00
4505;DHT22;2265;48.794;9.520;2023-03-14T09:20:22;13.60;98.00
4505;DHT22;2265;48.794;9.520;2023-03-14T09:22:49;13.80;98.00
4505;DHT22;2265;48.794;9.520;2023-03-14T09:25:16;13.80;98.00
4505;DHT22;2265;48.794;9.520;2023-03-14T09:27:44;13.70;98.00
4505;DHT22;2265;48.794;9.520;2023-03-14T09:30:13;13.60;98.00
4505;DHT22;2265;48.794;9.520;2023-03-14T09:32:40;13.50;98.00
4505;DHT22;2265;48.794;9.520;2023-03-14T09:35:08;13.50;98.00
4505;DHT22;2265;48.794;9.520;2023-03-14T09:37:35;13.60;98.00
4505;DHT22;2265;48.794;9.520;2023-03-14T09:40:03;13.40;98.00
4505;DHT22;2265;48.794;9.520;2023-03-14T09:42:37;13.30;98.00
4505;DHT22;2265;48.794;9.520;2023-03-14T09:45:09;13.30;98.00
4505;DHT22;2265;48.794;9.520;2023-03-14T09:47:40;13.40;98.00
4505;DHT22;2265;48.794;9.520;2023-03-14T09:50:12;13.40;98.00
4505;DHT22;2265;48.794;9.520;2023-03-14T09:52:44;13.40;98.00
4505;DHT22;2265;48.794;9.520;2023-03-14T09:55:17;13.40;98.00
4505;DHT22;2265;48.794;9.520;2023-03-14T09:57:45;13.50;98.00
4505;DHT22;2265;48.794;9.520;2023-03-14T10:00:16;13.50;98.00
4505;DHT22;2265;48.794;9.520;2023-03-14T10:02:51;13.50;98.00
4505;DHT22;2265;48.794;9.520;2023-03-14T10:05:22;13.60;98.00
4505;DHT22;2265;48.794;9.520;2023-03-14T10:07:50;13.70;98.00
4505;DHT22;2265;48.794;9.520;2023-03-14T10:10:19;13.60;98.00
4505;DHT22;2265;48.794;9.520;2023-03-14T10:12:49;13.80;98.00
4505;DHT22;2265;48.794;9.520;2023-03-14T10:15:25;14.00;98.00
4505;DHT22;2265;48.794;9.520;2023-03-14T10:17:55;14.10;98.00
4505;DHT22;2265;48.794;9.520;2023-03-14T10:20:31;14.10;98.00
4505;DHT22;2265;48.794;9.520;2023-03-14T10:23:00;14.00;98.00
4505;DHT22;2265;48.794;9.520;2023-03-14T10:25:29;14.00;98.00
4505;DHT22;2265;48.794;9.520;2023-03-14T10:27:57;14.30;98.00
4505;DHT22;2265;48.794;9.520;2023-03-14T10:30:30;14.50;98.00
4505;DHT22;2265;48.794;9.520;2023-03-14T10:33:08;14.90;98.00
4505;DHT22;2265;48.794;9.520;2023-03-14T10:35:36;15.30;98.00
4505;DHT22;2265;48.794;9.520;2023-03-14T10:38:05;15.50;98.00
4505;DHT22;2265;48.794;9.520;2023-03-14T10:40:34;15.80;98.00
4505;DHT22;2265;48.794;9.520;2023-03-14T10:43:05;15.80;98.00
4505;DHT22;2265;48.794;9.520;2023-03-14T10:45:37;15.80;98.00
4505;DHT22;2265;48.794;9.520;2023-03-14T10:48:24;15.90;98.00
4505;DHT22;2265;48.794;9.520;2023-03-14T10:50:56;16.30;98.00
4505;DHT22;2265;48.794;9.520;2023-03-14T10:53:24;16.30;98.00
4505;DHT22;2265;48.794;9.520;2023-03-14T10:55:52;15.70;98.00
4505;DHT22;2265;48.794;9.520;2023-03-14T10:58:24;15.50;98.00
4505;DHT22;2265;48.794;9.520;2023-03-14T11:01:02;15.30;98.00
4505;DHT22;2265;48.794;9.520;2023-03-14T11:03:36;15.10;98.00
4505;DHT22;2265;48.794;9.520;2023-03-14T11:06:10;14.70;98.00
4505;DHT22;2265;48.794;9.520;2023-03-14T11:08:45;14.50;98.00
4505;DHT22;2265;48.794;9.520;2023-03-14T11:11:20;14.50;98.00
4505;DHT22;2265;48.794;9.520;2023-03-14T11:13:58;14.40;98.00
4505;DHT22;2265;48.794;9.520;2023-03-14T11:16:34;14.20;98.00
4505;DHT22;2265;48.794;9.520;2023-03-14T11:22:26;13.80;98.00
4505;DHT22;2265;48.794;9.520;2023-03-14T11:25:17;13.50;98.00
4505;DHT22;2265;48.794;9.520;2023-03-14T11:27:48;13.40;98.00
4505;DHT22;2265;48.794;9.520;2023-03-14T11:30:23;13.40;98.00
4505;DHT22;2265;48.794;9.520;2023-03-14T11:32:58;13.20;98.00
4505;DHT22;2265;48.794;9.520;2023-03-14T11:35:30;13.20;98.00
4505;DHT22;2265;48.794;9.520;2023-03-14T11:38:18;13.10;98.00
4505;DHT22;2265;48.794;9.520;2023-03-14T11:40:47;12.90;98.00
4505;DHT22;2265;48.794;9.520;2023-03-14T11:43:18;12.90;98.00
4505;DHT22;2265;48.794;9.520;2023-03-14T11:45:48;12.90;98.00
4505;DHT22;2265;48.794;9.520;2023-03-14T11:48:24;12.90;98.00
4505;DHT22;2265;48.794;9.520;2023-03-14T11:50:56;12.70;98.00
4505;DHT22;2265;48.794;9.520;2023-03-14T11:53:38;12.50;98.00
4505;DHT22;2265;48.794;9.520;2023-03-14T11:56:13;12.30;98.00
4505;DHT22;2265;48.794;9.520;2023-03-14T11:58:50;12.20;98.00
4505;DHT22;2265;48.794;9.520;2023-03-14T12:01:21;12.20;98.00
4505;DHT22;2265;48.794;9.520;2023-03-14T12:03:58;12.20;98.00
4505;DHT22;2265;48.794;9.520;2023-03-14T12:06:32;12.00;98.00
4505;DHT22;2265;48.794;9.520;2023-03-14T12:09:04;12.10;98.00
4505;DHT22;2265;48.794;9.520;2023-03-14T12:11:38;12.00;98.00
4505;DHT22;2265;48.794;9.520;2023-03-14T12:14:18;11.90;98.00
4505;DHT22;2265;48.794;9.520;2023-03-14T12:16:54;11.90;98.00
4505;DHT22;2265;48.794;9.520;2023-03-14T12:19:38;11.80;98.00
4505;DHT22;2265;48.794;9.520;2023-03-14T12:22:30;11.80;98.00
4505;DHT22;2265;48.794;9.520;2023-03-14T12:25:03;11.90;98.00
4505;DHT22;2265;48.794;9.520;2023-03-14T12:30:29;11.80;98.00
4505;DHT22;2265;48.794;9.520;2023-03-14T12:33:26;11.80;98.00
4505;DHT22;2265;48.794;9.520;2023-03-14T12:35:58;11.80;98.00
4505;DHT22;2265;48.794;9.520;2023-03-14T12:38:32;11.90;98.00
4505;DHT22;2265;48.794;9.520;2023-03-14T12:41:14;11.80;98.00
4505;DHT22;2265;48.794;9.520;2023-03-14T12:43:42;11.70;98.00
4505;DHT22;2265;48.794;9.520;2023-03-14T12:46:22;11.80;98.00
4505;DHT22;2265;48.794;9.520;2023-03-14T12:48:53;11.80;98.00
4505;DHT22;2265;48.794;9.520;2023-03-14T12:51:27;11.90;98.00
4505;DHT22;2265;48.794;9.520;2023-03-14T12:57:03;12.20;98.00
4505;DHT22;2265;48.794;9.520;2023-03-14T12:59:35;12.10;98.00
4505;DHT22;2265;48.794;9.520;2023-03-14T13:02:19;12.30;98.00
4505;DHT22;2265;48.794;9.520;2023-03-14T13:04:54;12.60;98.00
4505;DHT22;2265;48.794;9.520;2023-03-14T13:07:35;12.40;98.00
4505;DHT22;2265;48.794;9.520;2023-03-14T13:10:19;12.00;98.00
4505;DHT22;2265;48.794;9.520;2023-03-14T13:12:51;11.50;98.00
4505;DHT22;2265;48.794;9.520;2023-03-14T13:15:23;11.60;98.00
4505;DHT22;2265;48.794;9.520;2023-03-14T13:17:52;12.40;98.00
4505;DHT22;2265;48.794;9.520;2023-03-14T13:20:26;12.90;98.00
4505;DHT22;2265;48.794;9.520;2023-03-14T13:22:54;13.00;95.30
4505;DHT22;2265;48.794;9.520;2023-03-14T13:25:21;13.00;96.70
4505;DHT22;2265;48.794;9.520;2023-03-14T13:27:52;13.00;96.30
4505;DHT22;2265;48.794;9.520;2023-03-14T13:30:22;13.10;96.90
4505;DHT22;2265;48.794;9.520;2023-03-14T13:32:51;12.70;95.50
4505;DHT22;2265;48.794;9.520;2023-03-14T13:35:21;12.50;97.30
4505;DHT22;2265;48.794;9.520;2023-03-14T13:37:54;12.00;98.00
4505;DHT22;2265;48.794;9.520;2023-03-14T13:40:25;11.90;98.00
4505;DHT22;2265;48.794;9.520;2023-03-14T13:43:10;12.10;98.00
4505;DHT22;2265;48.794;9.520;2023-03-14T13:45:44;12.00;98.00
4505;DHT22;2265;48.794;9.520;2023-03-14T13:48:13;11.60;98.00
4505;DHT22;2265;48.794;9.520;2023-03-14T13:50:52;11.30;97.00
4505;DHT22;2265;48.794;9.520;2023-03-14T13:53:19;11.00;98.00
4505;DHT22;2265;48.794;9.520;2023-03-14T13:55:47;10.70;98.00
4505;DHT22;2265;48.794;9.520;2023-03-14T13:58:25;10.70;98.00
4505;DHT22;2265;48.794;9.520;2023-03-14T14:01:10;10.60;97.90
4505;DHT22;2265;48.794;9.520;2023-03-14T14:03:41;10.60;98.00
4505;DHT22;2265;48.794;9.520;2023-03-14T14:06:16;10.60;98.00
4505;DHT22;2265;48.794;9.520;2023-03-14T14:08:46;10.70;98.00
4505;DHT22;2265;48.794;9.520;2023-03-14T14:11:22;10.90;98.00
4505;DHT22;2265;48.794;9.520;2023-03-14T14:13:52;11.20;97.80
4505;DHT22;2265;48.794;9.520;2023-03-14T14:16:21;11.30;96.20
4505;DHT22;2265;48.794;9.520;2023-03-14T14:18:51;11.40;94.90
4505;DHT22;2265;48.794;9.520;2023-03-14T14:21:19;11.30;94.90
4505;DHT22;2265;48.794;9.520;2023-03-14T14:23:46;11.00;96.10
4505;DHT22;2265;48.794;9.520;2023-03-14T14:26:17;10.70;94.40
4505;DHT22;2265;48.794;9.520;2023-03-14T14:28:46;10.40;96.00
4505;DHT22;2265;48.794;9.520;2023-03-14T14:31:21;10.30;95.90
4505;DHT22;2265;48.794;9.520;2023-03-14T14:33:55;10.20;94.50
4505;DHT22;2265;48.794;9.520;2023-03-14T14:36:27;10.20;96.00
4505;DHT22;2265;48.794;9.520;2023-03-14T14:38:59;10.10;95.60
4505;DHT22;2265;48.794;9.520;2023-03-14T14:41:28;10.00;94.40
4505;DHT22;2265;48.794;9.520;2023-03-14T14:43:57;10.00;95.30
4505;DHT22;2265;48.794;9.520;2023-03-14T14:46:28;9.90;93.30
4505;DHT22;2265;48.794;9.520;2023-03-14T14:48:57;9.80;93.30
4505;DHT22;2265;48.794;9.520;2023-03-14T14:51:30;9.80;94.10
4505;DHT22;2265;48.794;9.520;2023-03-14T14:54:13;9.80;96.40
4505;DHT22;2265;48.794;9.520;2023-03-14T14:56:40;9.80;92.90
4505;DHT22;2265;48.794;9.520;2023-03-14T14:59:21;9.90;94.30
4505;DHT22;2265;48.794;9.520;2023-03-14T15:01:54;9.80;94.30
4505;DHT22;2265;48.794;9.520;2023-03-14T15:04:21;9.80;93.80
4505;DHT22;2265;48.794;9.520;2023-03-14T15:06:49;9.70;94.90
4505;DHT22;2265;48.794;9.520;2023-03-14T15:09:19;9.70;93.70
4505;DHT22;2265;48.794;9.520;2023-03-14T15:11:47;9.70;94.20
4505;DHT22;2265;48.794;9.520;2023-03-14T15:14:14;9.70;93.80
4505;DHT22;2265;48.794;9.520;2023-03-14T15:16:41;9.70;94.80
4505;DHT22;2265;48.794;9.520;2023-03-14T15:19:14;9.70;95.10
4505;DHT22;2265;48.794;9.520;2023-03-14T15:21:42;9.80;95.30
4505;DHT22;2265;48.794;9.520;2023-03-14T15:24:09;9.90;94.70
4505;DHT22;2265;48.794;9.520;2023-03-14T15:26:37;10.00;94.40
4505;DHT22;2265;48.794;9.520;2023-03-14T15:29:04;10.10;93.60
4505;DHT22;2265;48.794;9.520;2023-03-14T15:31:34;10.90;93.00
4505;DHT22;2265;48.794;9.520;2023-03-14T15:34:01;11.50;91.50
4505;DHT22;2265;48.794;9.520;2023-03-14T15:36:32;11.70;91.80
4505;DHT22;2265;48.794;9.520;2023-03-14T15:38:59;11.60;90.60
4505;DHT22;2265;48.794;9.520;2023-03-14T15:41:27;11.30;92.30
4505;DHT22;2265;48.794;9.520;2023-03-14T15:43:55;11.90;92.10
4505;DHT22;2265;48.794;9.520;2023-03-14T15:46:22;12.10;88.50
4505;DHT22;2265;48.794;9.520;2023-03-14T15:48:50;12.40;89.80
4505;DHT22;2265;48.794;9.520;2023-03-14T15:51:18;12.80;88.40
4505;DHT22;2265;48.794;9.520;2023-03-14T15:53:46;13.20;89.00
4505;DHT22;2265;48.794;9.520;2023-03-14T15:56:15;13.60;89.50
4505;DHT22;2265;48.794;9.520;2023-03-14T15:58:43;13.70;86.30
4505;DHT22;2265;48.794;9.520;2023-03-14T16:01:16;13.80;85.90
4505;DHT22;2265;48.794;9.520;2023-03-14T16:03:44;12.60;87.30
4505;DHT22;2265;48.794;9.520;2023-03-14T16:06:12;11.90;89.20
4505;DHT22;2265;48.794;9.520;2023-03-14T16:08:39;11.50;90.70
4505;DHT22;2265;48.794;9.520;2023-03-14T16:11:10;11.40;90.80
4505;DHT22;2265;48.794;9.520;2023-03-14T16:13:37;11.00;92.40
4505;DHT22;2265;48.794;9.520;2023-03-14T16:16:07;10.90;92.20
4505;DHT22;2265;48.794;9.520;2023-03-14T16:18:36;10.70;93.70
4505;DHT22;2265;48.794;9.520;2023-03-14T16:21:05;10.50;95.10
4505;DHT22;2265;48.794;9.520;2023-03-14T16:23:33;10.50;94.80
4505;DHT22;2265;48.794;9.520;2023-03-14T16:26:03;10.40;94.00
4505;DHT22;2265;48.794;9.520;2023-03-14T16:28:32;10.20;94.30
4505;DHT22;2265;48.794;9.520;2023-03-14T16:31:00;10.40;94.60